createdAt,value
2022-11-20T00:00:48.473Z,61.12
2022-11-20T00:03:26.082Z,61.17
2022-11-20T00:06:04.776Z,61.25
2022-11-20T00:08:38.723Z,61.40
2022-11-20T00:11:16.138Z,61.39
2022-11-20T00:13:51.800Z,61.50
2022-11-20T00:16:27.423Z,61.58
2022-11-20T00:19:00.929Z,61.67
2022-11-20T00:21:34.515Z,61.64
2022-11-20T00:24:11.205Z,61.81
2022-11-20T00:26:44.754Z,61.84
2022-11-20T00:29:18.725Z,61.70
2022-11-20T00:31:52.193Z,61.77
2022-11-20T00:34:25.441Z,61.63
2022-11-20T00:36:59.112Z,61.82
2022-11-20T00:39:33.070Z,61.72
2022-11-20T00:42:07.103Z,61.82
2022-11-20T00:44:41.128Z,61.94
2022-11-20T00:47:14.783Z,62.13
2022-11-20T00:49:48.642Z,62.09
2022-11-20T00:52:22.470Z,62.02
2022-11-20T00:54:56.254Z,62.04
2022-11-20T00:57:30.044Z,62.00
2022-11-20T01:00:03.652Z,61.94
2022-11-20T01:02:37.389Z,61.98
2022-11-20T01:05:11.516Z,61.92
2022-11-20T01:07:45.157Z,61.82
2022-11-20T01:10:19.185Z,61.87
2022-11-20T01:13:13.365Z,61.95
2022-11-20T01:15:47.074Z,61.90
2022-11-20T01:18:20.552Z,61.95
2022-11-20T01:20:54.629Z,62.02
2022-11-20T01:23:28.076Z,62.05
2022-11-20T01:26:01.649Z,62.12
2022-11-20T01:28:35.787Z,62.19
2022-11-20T01:31:18.135Z,62.17
2022-11-20T01:33:53.976Z,62.15
2022-11-20T01:36:31.291Z,62.15
2022-11-20T01:39:06.994Z,61.93
2022-11-20T01:41:58.772Z,61.80
2022-11-20T01:44:51.158Z,61.85
2022-11-20T01:47:29.815Z,61.88
2022-11-20T01:50:07.143Z,61.84
2022-11-20T01:52:48.594Z,61.85
2022-11-20T01:55:26.599Z,61.89
2022-11-20T01:58:00.608Z,61.91
2022-11-20T02:00:34.118Z,61.82
2022-11-20T02:03:12.403Z,61.94
2022-11-20T02:05:50.604Z,61.82
2022-11-20T02:08:24.520Z,61.90
2022-11-20T02:10:58.241Z,61.97
2022-11-20T02:13:48.754Z,61.86
2022-11-20T02:16:26.650Z,61.77
2022-11-20T02:19:01.986Z,61.91
2022-11-20T02:21:43.661Z,62.08
2022-11-20T02:24:20.063Z,62.15
2022-11-20T02:26:56.840Z,62.04
2022-11-20T02:29:35.116Z,62.04
2022-11-20T02:32:08.599Z,62.16
2022-11-20T02:34:42.474Z,62.08
2022-11-20T02:37:16.489Z,62.12
2022-11-20T02:39:51.668Z,62.07
2022-11-20T02:42:25.556Z,62.13
2022-11-20T02:44:59.314Z,62.35
2022-11-20T02:47:32.384Z,62.42
2022-11-20T02:50:06.406Z,62.39
2022-11-20T02:52:40.225Z,62.48
2022-11-20T02:55:14.184Z,62.49
2022-11-20T02:57:48.385Z,62.43
2022-11-20T03:00:22.610Z,62.47
2022-11-20T03:02:56.224Z,62.58
2022-11-20T03:05:29.541Z,62.58
2022-11-20T03:08:03.036Z,62.58
2022-11-20T03:10:36.459Z,62.83
2022-11-20T03:13:10.061Z,63.10
2022-11-20T03:15:43.789Z,63.13
2022-11-20T03:18:17.153Z,63.27
2022-11-20T03:20:50.604Z,63.28
2022-11-20T03:23:23.907Z,63.39
2022-11-20T03:25:57.570Z,63.52
2022-11-20T03:28:31.268Z,63.47
2022-11-20T03:31:09.822Z,63.56
2022-11-20T03:33:44.865Z,63.66
2022-11-20T03:36:20.151Z,63.74
2022-11-20T03:38:55.499Z,63.83
2022-11-20T03:41:31.116Z,63.91
2022-11-20T03:44:06.479Z,64.10
2022-11-20T03:46:40.459Z,64.17
2022-11-20T03:49:13.898Z,64.20
2022-11-20T03:51:48.545Z,64.39
2022-11-20T03:54:22.182Z,64.59
2022-11-20T03:56:56.060Z,64.77
2022-11-20T03:59:29.351Z,64.74
2022-11-20T04:02:02.868Z,64.72
2022-11-20T04:04:36.479Z,64.80
2022-11-20T04:07:10.274Z,64.71
2022-11-20T04:09:43.558Z,64.73
2022-11-20T04:12:16.763Z,64.88
2022-11-20T04:14:50.711Z,64.87
2022-11-20T04:17:24.159Z,64.98
2022-11-20T04:19:57.422Z,65.22
2022-11-20T04:22:30.936Z,65.04
2022-11-20T04:25:04.979Z,64.96
2022-11-20T04:27:38.650Z,65.15
2022-11-20T04:30:14.293Z,65.21
2022-11-20T04:32:47.712Z,65.21
2022-11-20T04:35:21.383Z,65.33
2022-11-20T04:37:57.255Z,65.33
2022-11-20T04:40:30.999Z,65.42
2022-11-20T04:43:04.532Z,65.41
2022-11-20T04:45:37.866Z,65.41
2022-11-20T04:48:11.267Z,65.38
2022-11-20T04:50:46.032Z,65.59
2022-11-20T04:53:20.382Z,65.42
2022-11-20T04:55:54.429Z,65.52
2022-11-20T04:58:28.223Z,65.65
2022-11-20T05:01:07.696Z,65.62
2022-11-20T05:03:42.672Z,65.57
2022-11-20T05:06:17.812Z,65.71
2022-11-20T05:09:00.619Z,65.63
2022-11-20T05:11:34.640Z,65.50
2022-11-20T05:14:08.139Z,65.56
2022-11-20T05:16:42.311Z,65.60
2022-11-20T05:19:15.980Z,65.61
2022-11-20T05:21:49.748Z,65.69
2022-11-20T05:24:23.375Z,65.61
2022-11-20T05:26:57.141Z,65.64
2022-11-20T05:29:30.703Z,65.78
2022-11-20T05:32:04.451Z,65.80
2022-11-20T05:34:38.095Z,65.64
2022-11-20T05:37:11.252Z,65.71
2022-11-20T05:39:44.703Z,65.55
2022-11-20T05:42:33.899Z,65.62
2022-11-20T05:45:09.521Z,65.58
2022-11-20T05:47:42.887Z,65.53
2022-11-20T05:50:16.821Z,65.69
2022-11-20T05:52:50.509Z,65.77
2022-11-20T05:55:24.289Z,65.65
2022-11-20T05:57:58.692Z,65.92
2022-11-20T06:00:32.180Z,65.89
2022-11-20T06:03:05.841Z,65.74
2022-11-20T06:05:39.547Z,65.85
2022-11-20T06:08:13.186Z,65.73
2022-11-20T06:10:46.712Z,65.87
2022-11-20T06:13:20.182Z,65.88
2022-11-20T06:15:55.339Z,65.84
2022-11-20T06:18:30.936Z,65.89
2022-11-20T06:21:10.238Z,65.80
2022-11-20T06:23:46.197Z,65.73
2022-11-20T06:26:20.988Z,65.93
2022-11-20T06:28:55.511Z,65.89
2022-11-20T06:31:30.063Z,65.86
2022-11-20T06:34:03.582Z,65.75
2022-11-20T06:36:37.794Z,65.90
2022-11-20T06:39:11.031Z,65.92
2022-11-20T06:41:44.869Z,65.78
2022-11-20T06:44:18.605Z,65.93
2022-11-20T06:46:52.393Z,65.88
2022-11-20T06:49:26.690Z,65.76
2022-11-20T06:52:00.121Z,65.96
2022-11-20T06:54:33.391Z,65.77
2022-11-20T06:57:06.931Z,65.80
2022-11-20T06:59:40.658Z,65.77
2022-11-20T07:02:15.395Z,65.73
2022-11-20T07:04:49.237Z,65.76
2022-11-20T07:07:23.096Z,65.64
2022-11-20T07:09:56.812Z,65.51
2022-11-20T07:12:30.013Z,65.59
2022-11-20T07:15:03.746Z,65.71
2022-11-20T07:17:37.135Z,65.80
2022-11-20T07:20:12.465Z,65.90
2022-11-20T07:22:46.141Z,65.82
2022-11-20T07:25:19.878Z,65.80
2022-11-20T07:27:53.501Z,65.89
2022-11-20T07:30:27.579Z,65.79
2022-11-20T07:33:01.694Z,65.71
2022-11-20T07:35:35.718Z,65.76
2022-11-20T07:38:09.439Z,65.86
2022-11-20T07:40:43.132Z,65.64
2022-11-20T07:43:16.697Z,65.51
2022-11-20T07:45:50.316Z,65.57
2022-11-20T07:48:24.105Z,65.75
2022-11-20T07:50:59.409Z,65.50
2022-11-20T07:53:33.429Z,65.47
2022-11-20T07:56:08.124Z,65.54
2022-11-20T07:58:41.440Z,65.58
2022-11-20T08:01:15.200Z,65.50
2022-11-20T08:03:48.600Z,65.37
2022-11-20T08:06:22.173Z,65.27
2022-11-20T08:08:55.726Z,65.33
2022-11-20T08:11:47.521Z,65.24
2022-11-20T08:14:21.090Z,65.27
2022-11-20T08:16:54.733Z,65.29
2022-11-20T08:19:28.048Z,65.48
2022-11-20T08:22:01.747Z,65.64
2022-11-20T08:24:35.426Z,65.51
2022-11-20T08:27:08.820Z,65.25
2022-11-20T08:29:42.465Z,65.46
2022-11-20T08:32:16.470Z,65.26
2022-11-20T08:34:49.852Z,64.82
2022-11-20T08:37:23.676Z,64.70
2022-11-20T08:39:58.399Z,64.10
2022-11-20T08:42:31.664Z,63.83
2022-11-20T08:45:06.024Z,63.40
2022-11-20T08:47:39.299Z,63.16
2022-11-20T08:50:14.885Z,62.68
2022-11-20T08:52:48.292Z,63.68
2022-11-20T08:55:22.427Z,65.74
2022-11-20T08:57:56.390Z,62.29
2022-11-20T09:00:29.797Z,60.02
2022-11-20T09:03:03.459Z,59.14
2022-11-20T09:05:37.087Z,58.49
2022-11-20T09:08:11.088Z,58.53
2022-11-20T09:10:44.527Z,58.49
2022-11-20T09:13:18.436Z,58.93
2022-11-20T09:15:57.634Z,59.45
2022-11-20T09:18:33.117Z,59.71
2022-11-20T09:21:09.055Z,59.99
2022-11-20T09:23:43.092Z,60.41
2022-11-20T09:26:17.184Z,60.53
2022-11-20T09:28:55.338Z,60.60
2022-11-20T09:31:30.707Z,60.52
2022-11-20T09:34:04.321Z,60.52
2022-11-20T09:36:38.000Z,60.53
2022-11-20T09:39:11.886Z,60.31
2022-11-20T09:42:04.453Z,60.72
2022-11-20T09:44:59.047Z,60.97
2022-11-20T09:47:45.095Z,61.18
2022-11-20T09:50:32.300Z,61.27
2022-11-20T09:53:22.781Z,61.35
2022-11-20T09:55:57.577Z,61.57
2022-11-20T09:58:38.726Z,61.81
2022-11-20T10:01:16.765Z,61.72
2022-11-20T10:04:00.183Z,61.61
2022-11-20T10:06:37.210Z,61.62
2022-11-20T10:09:25.056Z,61.57
2022-11-20T10:12:09.343Z,61.12
2022-11-20T10:14:55.281Z,61.00
2022-11-20T10:17:42.311Z,60.40
2022-11-20T10:20:24.378Z,59.58
2022-11-20T10:23:15.028Z,60.18
2022-11-20T10:25:54.422Z,60.07
2022-11-20T10:28:53.964Z,59.65
2022-11-20T10:31:38.608Z,58.67
2022-11-20T10:34:23.032Z,58.27
2022-11-20T10:37:05.066Z,57.84
2022-11-20T10:39:44.440Z,56.40
2022-11-20T10:42:27.833Z,54.75
2022-11-20T10:45:18.868Z,53.80
2022-11-20T10:47:53.029Z,52.93
2022-11-20T10:50:28.231Z,53.23
2022-11-20T10:53:14.856Z,53.65
2022-11-20T10:55:53.605Z,53.80
2022-11-20T10:58:38.915Z,54.14
2022-11-20T11:01:18.830Z,55.25
2022-11-20T11:03:54.329Z,54.39
2022-11-20T11:06:35.579Z,52.65
2022-11-20T11:09:15.695Z,52.81
2022-11-20T11:11:49.172Z,52.49
2022-11-20T11:14:25.850Z,52.36
2022-11-20T11:17:00.612Z,51.54
2022-11-20T11:19:34.219Z,51.78
2022-11-20T11:22:22.894Z,53.49
2022-11-20T11:24:57.499Z,53.79
2022-11-20T11:27:31.222Z,53.42
2022-11-20T11:30:18.617Z,53.11
2022-11-20T11:32:52.552Z,54.62
2022-11-20T11:35:31.433Z,53.11
2022-11-20T11:38:19.261Z,51.95
2022-11-20T11:40:56.162Z,50.70
2022-11-20T11:43:50.826Z,51.03
2022-11-20T11:46:39.040Z,49.38
2022-11-20T11:49:21.948Z,49.24
2022-11-20T11:52:14.555Z,48.78
2022-11-20T11:54:54.007Z,49.02
2022-11-20T11:57:33.072Z,48.53
2022-11-20T12:00:13.125Z,49.16
2022-11-20T12:03:00.727Z,49.19
2022-11-20T12:05:44.380Z,49.54
2022-11-20T12:08:25.794Z,48.86
2022-11-20T12:11:06.327Z,48.80
2022-11-20T12:13:49.913Z,48.09
2022-11-20T12:16:25.536Z,47.05
2022-11-20T12:18:59.244Z,46.77
2022-11-20T12:21:44.841Z,47.50
2022-11-20T12:24:44.259Z,48.45
2022-11-20T12:27:43.054Z,48.67
2022-11-20T12:30:19.101Z,49.59
2022-11-20T12:33:15.147Z,50.12
2022-11-20T12:36:05.455Z,50.32
2022-11-20T12:39:10.304Z,49.74
2022-11-20T12:42:18.663Z,49.34
2022-11-20T12:45:20.811Z,49.53
2022-11-20T12:48:09.037Z,49.47
2022-11-20T12:54:02.701Z,49.40
2022-11-20T12:56:44.540Z,49.18
2022-11-20T12:59:37.154Z,48.92
2022-11-20T13:02:27.235Z,49.48
2022-11-20T13:05:21.581Z,49.81
2022-11-20T13:07:59.350Z,50.47
2022-11-20T13:10:46.613Z,50.73
2022-11-20T13:13:27.412Z,51.14
2022-11-20T13:16:08.716Z,51.35
2022-11-20T13:18:47.226Z,51.58
2022-11-20T13:21:24.047Z,51.88
2022-11-20T13:24:08.811Z,52.12
2022-11-20T13:26:43.069Z,52.37
2022-11-20T13:29:21.704Z,52.55
2022-11-20T13:31:53.826Z,52.93
2022-11-20T13:34:35.828Z,53.08
2022-11-20T13:37:30.909Z,53.29
2022-11-20T13:40:25.530Z,53.81
2022-11-20T13:43:11.069Z,54.07
2022-11-20T13:45:57.741Z,54.16
2022-11-20T13:48:36.108Z,54.27
2022-11-20T13:51:33.648Z,54.35
2022-11-20T13:54:38.269Z,54.63
2022-11-20T13:57:31.047Z,54.96
2022-11-20T14:00:14.453Z,55.04
2022-11-20T14:02:57.180Z,55.26
2022-11-20T14:05:31.105Z,55.49
2022-11-20T14:08:09.594Z,55.48
2022-11-20T14:10:43.857Z,55.60
2022-11-20T14:13:23.114Z,55.68
2022-11-20T14:16:01.519Z,55.78
2022-11-20T14:18:35.995Z,55.93
2022-11-20T14:21:13.745Z,56.07
2022-11-20T14:23:48.456Z,56.13
2022-11-20T14:26:23.561Z,56.36
2022-11-20T14:28:58.556Z,56.51
2022-11-20T14:31:33.927Z,56.67
2022-11-20T14:34:08.773Z,56.90
2022-11-20T14:36:43.362Z,56.83
2022-11-20T14:39:25.960Z,56.93
2022-11-20T14:42:00.596Z,57.11
2022-11-20T14:44:38.831Z,57.26
2022-11-20T14:47:19.388Z,57.30
2022-11-20T14:49:54.326Z,57.37
2022-11-20T14:52:30.291Z,57.67
2022-11-20T14:55:05.354Z,57.89
2022-11-20T14:57:40.602Z,58.19
2022-11-20T15:00:26.137Z,58.77
2022-11-20T15:03:00.536Z,59.47
2022-11-20T15:08:33.080Z,59.92
2022-11-20T15:11:18.888Z,60.16
2022-11-20T15:13:54.145Z,60.50
2022-11-20T15:16:29.779Z,60.58
2022-11-20T15:19:05.173Z,60.64
2022-11-20T15:21:39.226Z,60.86
2022-11-20T15:24:14.676Z,61.07
2022-11-20T15:26:49.591Z,61.07
2022-11-20T15:29:26.418Z,61.49
2022-11-20T15:32:00.588Z,61.56
2022-11-20T15:34:35.216Z,61.81
2022-11-20T15:37:09.343Z,61.78
2022-11-20T15:39:47.495Z,61.84
2022-11-20T15:42:21.781Z,62.21
2022-11-20T15:44:55.576Z,62.01
2022-11-20T15:47:33.019Z,62.12
2022-11-20T15:50:13.017Z,62.36
2022-11-20T15:52:48.210Z,62.52
2022-11-20T15:55:23.219Z,62.77
2022-11-20T15:57:58.144Z,63.07
2022-11-20T16:00:32.860Z,63.22
2022-11-20T16:03:07.993Z,63.26
2022-11-20T16:05:43.514Z,63.29
2022-11-20T16:08:18.708Z,63.24
2022-11-20T16:10:52.848Z,63.72
2022-11-20T16:13:44.691Z,64.06
2022-11-20T16:16:24.730Z,64.16
2022-11-20T16:18:59.645Z,64.19
2022-11-20T16:21:36.246Z,64.43
2022-11-20T16:24:14.785Z,65.07
2022-11-20T16:26:49.132Z,64.92
2022-11-20T16:29:24.231Z,65.22
2022-11-20T16:32:02.578Z,65.16
2022-11-20T16:34:37.687Z,65.25
2022-11-20T16:37:12.478Z,65.19
2022-11-20T16:39:48.092Z,65.23
2022-11-20T16:42:22.917Z,65.39
2022-11-20T16:44:57.644Z,65.26
2022-11-20T16:47:37.013Z,65.42
2022-11-20T16:50:13.256Z,65.54
2022-11-20T16:52:47.803Z,65.66
2022-11-20T16:55:22.339Z,66.11
2022-11-20T16:57:57.690Z,66.07
2022-11-20T17:00:31.693Z,66.40
2022-11-20T17:03:06.689Z,66.69
2022-11-20T17:05:45.053Z,66.84
2022-11-20T17:08:19.376Z,67.01
2022-11-20T17:10:53.815Z,66.87
2022-11-20T17:13:30.068Z,66.76
2022-11-20T17:16:07.300Z,66.93
2022-11-20T17:18:42.335Z,67.11
2022-11-20T17:21:17.855Z,67.11
2022-11-20T17:23:52.299Z,66.90
2022-11-20T17:26:29.094Z,66.96
2022-11-20T17:29:06.693Z,66.95
2022-11-20T17:31:44.900Z,67.05
2022-11-20T17:34:19.925Z,67.08
2022-11-20T17:36:56.458Z,67.45
2022-11-20T17:39:31.091Z,67.54
2022-11-20T17:42:22.884Z,67.24
2022-11-20T17:44:59.778Z,67.27
2022-11-20T17:47:37.341Z,67.51
2022-11-20T17:50:12.735Z,67.68
2022-11-20T17:52:48.547Z,67.70
2022-11-20T17:55:23.595Z,67.76
2022-11-20T17:58:03.870Z,67.80
2022-11-20T18:00:38.170Z,67.93
2022-11-20T18:03:13.015Z,67.72
2022-11-20T18:05:47.989Z,67.62
2022-11-20T18:08:22.537Z,67.66
2022-11-20T18:10:57.142Z,67.73
2022-11-20T18:13:52.341Z,67.75
2022-11-20T18:16:28.028Z,67.79
2022-11-20T18:19:03.989Z,67.81
2022-11-20T18:21:39.153Z,67.98
2022-11-20T18:24:15.360Z,67.90
2022-11-20T18:26:50.831Z,68.00
2022-11-20T18:29:26.226Z,67.98
2022-11-20T18:32:02.637Z,68.16
2022-11-20T18:34:37.822Z,68.07
2022-11-20T18:37:15.640Z,68.09
2022-11-20T18:39:51.351Z,68.20
2022-11-20T18:42:43.825Z,68.24
2022-11-20T18:45:20.472Z,68.45
2022-11-20T18:47:56.952Z,68.57
2022-11-20T18:50:32.265Z,68.51
2022-11-20T18:53:08.623Z,68.54
2022-11-20T18:55:43.266Z,68.43
2022-11-20T18:58:17.545Z,68.35
2022-11-20T19:00:54.545Z,68.32
2022-11-20T19:03:31.000Z,68.10
2022-11-20T19:06:05.994Z,67.97
2022-11-20T19:08:41.937Z,67.85
2022-11-20T19:11:17.369Z,67.86
2022-11-20T19:13:51.771Z,67.89
2022-11-20T19:16:27.405Z,68.08
2022-11-20T19:19:03.775Z,67.99
2022-11-20T19:21:38.969Z,68.19
2022-11-20T19:24:14.042Z,68.10
2022-11-20T19:26:49.086Z,68.41
2022-11-20T19:29:25.103Z,68.59
2022-11-20T19:32:01.085Z,68.90
2022-11-20T19:34:36.140Z,68.94
2022-11-20T19:37:11.873Z,69.11
2022-11-20T19:39:46.570Z,69.17
2022-11-20T19:42:21.601Z,68.73
2022-11-20T19:44:59.131Z,68.76
2022-11-20T19:48:06.160Z,68.82
2022-11-20T19:50:31.395Z,68.96
2022-11-20T19:53:08.818Z,69.33
2022-11-20T19:55:44.830Z,69.27
2022-11-20T19:58:23.627Z,69.24
2022-11-20T20:00:59.031Z,69.22
2022-11-20T20:03:33.578Z,69.44
2022-11-20T20:06:09.460Z,69.56
2022-11-20T20:08:44.633Z,69.55
2022-11-20T20:11:20.867Z,69.74
2022-11-20T20:13:57.959Z,70.11
2022-11-20T20:16:33.378Z,70.04
2022-11-20T20:19:08.993Z,69.92
2022-11-20T20:21:43.771Z,69.87
2022-11-20T20:24:18.959Z,69.84
2022-11-20T20:26:57.961Z,69.80
2022-11-20T20:29:34.278Z,69.80
2022-11-20T20:32:09.449Z,69.79
2022-11-20T20:34:43.481Z,69.73
2022-11-20T20:37:18.711Z,69.70
2022-11-20T20:39:53.606Z,69.42
2022-11-20T20:42:28.993Z,69.43
2022-11-20T20:45:11.637Z,69.41
2022-11-20T20:47:55.821Z,69.31
2022-11-20T20:50:34.954Z,69.32
2022-11-20T20:53:09.509Z,69.22
2022-11-20T20:55:44.269Z,69.19
2022-11-20T20:58:18.376Z,69.14
2022-11-20T21:00:53.107Z,69.00
2022-11-20T21:03:30.673Z,69.03
2022-11-20T21:06:08.748Z,68.95
2022-11-20T21:08:44.655Z,68.93
2022-11-20T21:11:20.911Z,68.81
2022-11-20T21:13:54.546Z,68.96
2022-11-20T21:16:42.157Z,68.76
2022-11-20T21:19:16.942Z,68.84
2022-11-20T21:22:00.845Z,68.85
2022-11-20T21:24:35.778Z,68.81
2022-11-20T21:27:09.819Z,68.63
2022-11-20T21:29:43.887Z,68.70
2022-11-20T21:32:18.026Z,68.67
2022-11-20T21:34:52.351Z,68.72
2022-11-20T21:37:26.518Z,68.86
2022-11-20T21:40:00.075Z,68.78
2022-11-20T21:42:33.702Z,68.80
2022-11-20T21:45:08.387Z,68.86
2022-11-20T21:47:41.855Z,68.91
2022-11-20T21:50:15.543Z,69.07
2022-11-20T21:52:49.336Z,68.97
2022-11-20T21:55:23.423Z,68.83
2022-11-20T21:57:57.016Z,68.92
2022-11-20T22:00:30.297Z,68.79
2022-11-20T22:03:03.994Z,68.94
2022-11-20T22:05:37.672Z,68.91
2022-11-20T22:08:11.361Z,68.67
2022-11-20T22:10:44.562Z,68.68
2022-11-20T22:13:36.299Z,68.80
2022-11-20T22:16:10.399Z,68.88
2022-11-20T22:18:47.498Z,68.89
2022-11-20T22:21:22.454Z,68.97
2022-11-20T22:23:56.764Z,68.92
2022-11-20T22:26:34.930Z,68.71
2022-11-20T22:29:17.219Z,68.75
2022-11-20T22:31:52.844Z,68.75
2022-11-20T22:34:26.434Z,68.71
2022-11-20T22:37:01.037Z,68.86
2022-11-20T22:39:34.492Z,68.95
2022-11-20T22:42:08.210Z,68.84
2022-11-20T22:44:41.790Z,68.92
2022-11-20T22:47:15.102Z,69.10
2022-11-20T22:49:49.075Z,69.16
2022-11-20T22:52:22.415Z,69.29
2022-11-20T22:54:55.713Z,69.25
2022-11-20T22:57:29.210Z,69.23
2022-11-20T23:00:02.616Z,69.15
2022-11-20T23:02:36.266Z,69.35
2022-11-20T23:05:10.775Z,69.27
2022-11-20T23:07:44.896Z,69.24
2022-11-20T23:10:18.654Z,69.35
2022-11-20T23:12:51.866Z,69.28
2022-11-20T23:15:25.549Z,69.24
2022-11-20T23:17:58.913Z,69.22
2022-11-20T23:20:32.885Z,69.21
2022-11-20T23:23:06.478Z,69.25
2022-11-20T23:25:39.881Z,69.21
2022-11-20T23:28:13.636Z,69.35
2022-11-20T23:30:49.593Z,69.50
2022-11-20T23:33:22.851Z,69.60
2022-11-20T23:35:56.472Z,69.75
2022-11-20T23:38:30.252Z,69.78
2022-11-20T23:41:04.204Z,69.80
2022-11-20T23:43:37.769Z,69.75
2022-11-20T23:46:16.464Z,69.78
2022-11-20T23:48:50.645Z,69.84
2022-11-20T23:51:24.532Z,69.81
2022-11-20T23:54:03.272Z,69.87
2022-11-20T23:56:38.518Z,69.86
2022-11-20T23:59:12.364Z,69.92
